Terminal Aerodrome Forecast
Issued by NWS Cleveland, OH

Home | Current Version | Previous Version | Text Only | Print | Product List | Glossary Off
Versions: 1 2 3 4 5 6 7 8 9 10 11 12 13 14 15 16 17 18 19 20 21

000
FTUS41 KCLE 211000 AAA
TAFMFD
TAF AMD
KMFD 211039Z 2111/2206 22012G20KT P6SM SCT006 OVC015
      TEMPO 2112/2114 BKN006
     FM211600 25012G22KT P6SM OVC020
     FM212000 30015G22KT P6SM VCSH BKN035
     FM220100 33010KT P6SM BKN035=

USA.gov is the U.S. government's official web portal to all federal, state and local government web resources and services.